sensor_id;sensor_type;location;lat;lon;timestamp;P1;durP1;ratioP1;P2;durP2;ratioP2
25249;SDS011;13201;51.148;13.738;2023-04-24T00:00:00;5.57;;;3.23;;
25249;SDS011;13201;51.148;13.738;2023-04-24T00:02:30;5.03;;;3.10;;
25249;SDS011;13201;51.148;13.738;2023-04-24T00:04:56;4.22;;;2.80;;
25249;SDS011;13201;51.148;13.738;2023-04-24T00:07:22;3.33;;;2.55;;
25249;SDS011;13201;51.148;13.738;2023-04-24T00:09:48;3.88;;;2.60;;
25249;SDS011;13201;51.148;13.738;2023-04-24T00:12:13;4.20;;;2.80;;
25249;SDS011;13201;51.148;13.738;2023-04-24T00:14:39;5.95;;;2.90;;
25249;SDS011;13201;51.148;13.738;2023-04-24T00:17:05;3.97;;;2.58;;
25249;SDS011;13201;51.148;13.738;2023-04-24T00:19:31;4.57;;;3.30;;
25249;SDS011;13201;51.148;13.738;2023-04-24T00:21:56;5.25;;;2.95;;
25249;SDS011;13201;51.148;13.738;2023-04-24T00:24:22;4.28;;;2.80;;
25249;SDS011;13201;51.148;13.738;2023-04-24T00:26:47;4.65;;;2.95;;
25249;SDS011;13201;51.148;13.738;2023-04-24T00:29:13;4.47;;;3.08;;
25249;SDS011;13201;51.148;13.738;2023-04-24T00:31:39;5.55;;;3.35;;
25249;SDS011;13201;51.148;13.738;2023-04-24T00:34:05;5.25;;;3.30;;
25249;SDS011;13201;51.148;13.738;2023-04-24T00:36:31;4.37;;;3.00;;
25249;SDS011;13201;51.148;13.738;2023-04-24T00:38:57;4.03;;;3.08;;
25249;SDS011;13201;51.148;13.738;2023-04-24T00:41:24;4.22;;;3.30;;
25249;SDS011;13201;51.148;13.738;2023-04-24T00:43:50;4.78;;;3.00;;
25249;SDS011;13201;51.148;13.738;2023-04-24T00:46:17;4.60;;;3.15;;
25249;SDS011;13201;51.148;13.738;2023-04-24T00:48:43;5.13;;;3.00;;
25249;SDS011;13201;51.148;13.738;2023-04-24T00:51:09;5.40;;;3.30;;
25249;SDS011;13201;51.148;13.738;2023-04-24T00:53:35;6.53;;;2.88;;
25249;SDS011;13201;51.148;13.738;2023-04-24T00:56:01;5.20;;;3.05;;
25249;SDS011;13201;51.148;13.738;2023-04-24T00:58:27;5.63;;;3.08;;
25249;SDS011;13201;51.148;13.738;2023-04-24T01:00:54;4.67;;;3.20;;
25249;SDS011;13201;51.148;13.738;2023-04-24T01:03:24;5.32;;;3.33;;
25249;SDS011;13201;51.148;13.738;2023-04-24T01:30:32;6.70;;;3.42;;
25249;SDS011;13201;51.148;13.738;2023-04-24T01:32:58;6.70;;;3.15;;
25249;SDS011;13201;51.148;13.738;2023-04-24T01:35:24;5.70;;;3.80;;
25249;SDS011;13201;51.148;13.738;2023-04-24T01:37:50;6.70;;;3.33;;
25249;SDS011;13201;51.148;13.738;2023-04-24T01:40:16;7.03;;;3.30;;
25249;SDS011;13201;51.148;13.738;2023-04-24T01:42:42;5.65;;;2.90;;
25249;SDS011;13201;51.148;13.738;2023-04-24T01:45:08;5.45;;;3.60;;
25249;SDS011;13201;51.148;13.738;2023-04-24T01:47:36;5.28;;;3.30;;
25249;SDS011;13201;51.148;13.738;2023-04-24T01:50:03;6.70;;;2.92;;
25249;SDS011;13201;51.148;13.738;2023-04-24T01:52:29;3.50;;;2.72;;
25249;SDS011;13201;51.148;13.738;2023-04-24T01:54:59;5.50;;;3.30;;
25249;SDS011;13201;51.148;13.738;2023-04-24T01:57:25;4.50;;;3.03;;
25249;SDS011;13201;51.148;13.738;2023-04-24T01:59:51;3.75;;;2.75;;
25249;SDS011;13201;51.148;13.738;2023-04-24T02:02:17;2.90;;;2.40;;
25249;SDS011;13201;51.148;13.738;2023-04-24T02:04:43;4.30;;;2.63;;
25249;SDS011;13201;51.148;13.738;2023-04-24T02:07:08;5.57;;;2.72;;
25249;SDS011;13201;51.148;13.738;2023-04-24T02:09:34;4.70;;;2.95;;
25249;SDS011;13201;51.148;13.738;2023-04-24T02:12:00;3.63;;;2.60;;
25249;SDS011;13201;51.148;13.738;2023-04-24T02:14:25;3.35;;;2.63;;
25249;SDS011;13201;51.148;13.738;2023-04-24T02:16:51;3.95;;;2.70;;
25249;SDS011;13201;51.148;13.738;2023-04-24T02:19:18;4.05;;;2.75;;
25249;SDS011;13201;51.148;13.738;2023-04-24T02:21:44;5.45;;;2.40;;
25249;SDS011;13201;51.148;13.738;2023-04-24T02:24:09;5.68;;;2.15;;
25249;SDS011;13201;51.148;13.738;2023-04-24T02:26:35;3.22;;;2.13;;
25249;SDS011;13201;51.148;13.738;2023-04-24T02:29:01;4.05;;;2.20;;
25249;SDS011;13201;51.148;13.738;2023-04-24T02:31:26;3.72;;;2.50;;
25249;SDS011;13201;51.148;13.738;2023-04-24T02:33:52;4.07;;;2.20;;
25249;SDS011;13201;51.148;13.738;2023-04-24T02:36:18;5.15;;;2.17;;
25249;SDS011;13201;51.148;13.738;2023-04-24T02:38:43;3.15;;;2.22;;
25249;SDS011;13201;51.148;13.738;2023-04-24T02:41:09;2.97;;;1.77;;
25249;SDS011;13201;51.148;13.738;2023-04-24T02:43:35;2.25;;;1.80;;
25249;SDS011;13201;51.148;13.738;2023-04-24T02:46:00;2.60;;;1.90;;
25249;SDS011;13201;51.148;13.738;2023-04-24T02:48:26;5.00;;;1.50;;
25249;SDS011;13201;51.148;13.738;2023-04-24T02:50:52;3.72;;;1.55;;
25249;SDS011;13201;51.148;13.738;2023-04-24T02:53:19;2.58;;;1.80;;
25249;SDS011;13201;51.148;13.738;2023-04-24T02:55:44;5.82;;;1.63;;
25249;SDS011;13201;51.148;13.738;2023-04-24T02:58:11;2.22;;;1.65;;
25249;SDS011;13201;51.148;13.738;2023-04-24T03:00:37;2.78;;;1.50;;
25249;SDS011;13201;51.148;13.738;2023-04-24T03:03:04;2.30;;;1.40;;
25249;SDS011;13201;51.148;13.738;2023-04-24T03:05:30;1.48;;;1.10;;
25249;SDS011;13201;51.148;13.738;2023-04-24T03:07:56;2.05;;;1.60;;
25249;SDS011;13201;51.148;13.738;2023-04-24T03:10:22;3.25;;;2.00;;
25249;SDS011;13201;51.148;13.738;2023-04-24T03:12:48;3.97;;;2.15;;
25249;SDS011;13201;51.148;13.738;2023-04-24T03:15:14;2.63;;;1.80;;
25249;SDS011;13201;51.148;13.738;2023-04-24T03:17:40;2.17;;;1.70;;
25249;SDS011;13201;51.148;13.738;2023-04-24T03:20:06;3.38;;;1.90;;
25249;SDS011;13201;51.148;13.738;2023-04-24T03:22:35;2.60;;;2.20;;
25249;SDS011;13201;51.148;13.738;2023-04-24T03:25:01;3.28;;;2.00;;
25249;SDS011;13201;51.148;13.738;2023-04-24T03:27:27;2.17;;;1.77;;
25249;SDS011;13201;51.148;13.738;2023-04-24T03:29:53;2.30;;;1.70;;
25249;SDS011;13201;51.148;13.738;2023-04-24T03:32:21;3.78;;;1.50;;
25249;SDS011;13201;51.148;13.738;2023-04-24T03:34:48;2.28;;;1.33;;
25249;SDS011;13201;51.148;13.738;2023-04-24T03:37:14;2.03;;;1.05;;
25249;SDS011;13201;51.148;13.738;2023-04-24T03:39:40;1.67;;;1.10;;
25249;SDS011;13201;51.148;13.738;2023-04-24T03:42:06;1.55;;;1.08;;
25249;SDS011;13201;51.148;13.738;2023-04-24T03:44:33;1.15;;;1.05;;
25249;SDS011;13201;51.148;13.738;2023-04-24T03:46:59;1.20;;;1.10;;
25249;SDS011;13201;51.148;13.738;2023-04-24T03:49:25;1.30;;;1.05;;
25249;SDS011;13201;51.148;13.738;2023-04-24T03:51:51;2.15;;;1.10;;
25249;SDS011;13201;51.148;13.738;2023-04-24T03:54:17;1.00;;;0.80;;
25249;SDS011;13201;51.148;13.738;2023-04-24T03:56:44;4.78;;;1.10;;
25249;SDS011;13201;51.148;13.738;2023-04-24T03:59:10;3.40;;;0.90;;
25249;SDS011;13201;51.148;13.738;2023-04-24T04:01:35;3.10;;;0.95;;
25249;SDS011;13201;51.148;13.738;2023-04-24T04:04:05;1.33;;;1.05;;
25249;SDS011;13201;51.148;13.738;2023-04-24T04:06:31;2.35;;;1.23;;
25249;SDS011;13201;51.148;13.738;2023-04-24T04:08:57;2.05;;;1.08;;
25249;SDS011;13201;51.148;13.738;2023-04-24T04:11:24;1.13;;;0.90;;
25249;SDS011;13201;51.148;13.738;2023-04-24T04:13:50;3.87;;;1.20;;
25249;SDS011;13201;51.148;13.738;2023-04-24T04:16:15;1.75;;;1.10;;
25249;SDS011;13201;51.148;13.738;2023-04-24T04:18:44;1.38;;;0.77;;
25249;SDS011;13201;51.148;13.738;2023-04-24T04:21:10;0.93;;;0.73;;
25249;SDS011;13201;51.148;13.738;2023-04-24T04:23:36;1.13;;;0.75;;
25249;SDS011;13201;51.148;13.738;2023-04-24T04:26:02;1.55;;;0.70;;
25249;SDS011;13201;51.148;13.738;2023-04-24T04:28:28;1.15;;;0.75;;
25249;SDS011;13201;51.148;13.738;2023-04-24T04:30:56;0.90;;;0.80;;
25249;SDS011;13201;51.148;13.738;2023-04-24T04:33:23;1.20;;;1.10;;
25249;SDS011;13201;51.148;13.738;2023-04-24T04:35:49;0.60;;;0.52;;
25249;SDS011;13201;51.148;13.738;2023-04-24T04:38:17;1.17;;;0.65;;
25249;SDS011;13201;51.148;13.738;2023-04-24T04:40:46;0.90;;;0.80;;
25249;SDS011;13201;51.148;13.738;2023-04-24T04:43:12;1.90;;;0.80;;
25249;SDS011;13201;51.148;13.738;2023-04-24T04:45:41;3.58;;;0.73;;
25249;SDS011;13201;51.148;13.738;2023-04-24T04:48:08;0.63;;;0.60;;
25249;SDS011;13201;51.148;13.738;2023-04-24T04:50:37;1.73;;;0.63;;
25249;SDS011;13201;51.148;13.738;2023-04-24T04:53:03;2.28;;;1.05;;
25249;SDS011;13201;51.148;13.738;2023-04-24T04:55:29;1.40;;;0.70;;
25249;SDS011;13201;51.148;13.738;2023-04-24T04:57:55;1.52;;;0.95;;
25249;SDS011;13201;51.148;13.738;2023-04-24T05:00:21;1.50;;;1.08;;
25249;SDS011;13201;51.148;13.738;2023-04-24T05:02:50;0.82;;;0.70;;
25249;SDS011;13201;51.148;13.738;2023-04-24T05:05:16;2.60;;;0.73;;
25249;SDS011;13201;51.148;13.738;2023-04-24T05:07:42;2.08;;;0.80;;
25249;SDS011;13201;51.148;13.738;2023-04-24T05:10:08;0.75;;;0.73;;
25249;SDS011;13201;51.148;13.738;2023-04-24T05:12:34;2.58;;;1.05;;
25249;SDS011;13201;51.148;13.738;2023-04-24T05:15:00;0.90;;;0.80;;
25249;SDS011;13201;51.148;13.738;2023-04-24T05:17:25;3.65;;;1.00;;
25249;SDS011;13201;51.148;13.738;2023-04-24T05:19:51;3.80;;;0.80;;
25249;SDS011;13201;51.148;13.738;2023-04-24T05:22:17;3.55;;;0.80;;
25249;SDS011;13201;51.148;13.738;2023-04-24T05:24:45;0.82;;;0.80;;
25249;SDS011;13201;51.148;13.738;2023-04-24T05:27:12;1.73;;;1.00;;
25249;SDS011;13201;51.148;13.738;2023-04-24T05:29:37;1.60;;;0.88;;
25249;SDS011;13201;51.148;13.738;2023-04-24T05:32:03;1.77;;;0.90;;
25249;SDS011;13201;51.148;13.738;2023-04-24T05:34:29;1.27;;;0.85;;
25249;SDS011;13201;51.148;13.738;2023-04-24T05:36:55;1.27;;;0.70;;
25249;SDS011;13201;51.148;13.738;2023-04-24T05:39:20;0.80;;;0.70;;
25249;SDS011;13201;51.148;13.738;2023-04-24T05:41:46;3.75;;;0.77;;
25249;SDS011;13201;51.148;13.738;2023-04-24T05:44:12;1.42;;;0.85;;
25249;SDS011;13201;51.148;13.738;2023-04-24T05:46:38;0.77;;;0.70;;
25249;SDS011;13201;51.148;13.738;2023-04-24T05:49:03;0.90;;;0.70;;
25249;SDS011;13201;51.148;13.738;2023-04-24T05:51:29;1.20;;;0.88;;
25249;SDS011;13201;51.148;13.738;2023-04-24T05:53:56;1.38;;;0.73;;
25249;SDS011;13201;51.148;13.738;2023-04-24T05:56:22;2.00;;;0.75;;
25249;SDS011;13201;51.148;13.738;2023-04-24T05:58:48;1.73;;;0.90;;
25249;SDS011;13201;51.148;13.738;2023-04-24T06:01:14;5.25;;;0.65;;
25249;SDS011;13201;51.148;13.738;2023-04-24T06:03:40;1.35;;;0.80;;
25249;SDS011;13201;51.148;13.738;2023-04-24T06:06:06;3.55;;;0.80;;
25249;SDS011;13201;51.148;13.738;2023-04-24T06:08:33;1.20;;;0.70;;
25249;SDS011;13201;51.148;13.738;2023-04-24T06:10:58;0.82;;;0.80;;
25249;SDS011;13201;51.148;13.738;2023-04-24T06:13:24;2.08;;;0.75;;
25249;SDS011;13201;51.148;13.738;2023-04-24T06:15:50;0.98;;;0.90;;
25249;SDS011;13201;51.148;13.738;2023-04-24T06:18:16;2.00;;;1.00;;
25249;SDS011;13201;51.148;13.738;2023-04-24T06:20:42;2.05;;;0.93;;
25249;SDS011;13201;51.148;13.738;2023-04-24T06:23:08;1.30;;;0.77;;
25249;SDS011;13201;51.148;13.738;2023-04-24T06:25:33;1.67;;;0.90;;
25249;SDS011;13201;51.148;13.738;2023-04-24T06:27:59;2.20;;;0.90;;
25249;SDS011;13201;51.148;13.738;2023-04-24T06:30:25;2.92;;;0.75;;
25249;SDS011;13201;51.148;13.738;2023-04-24T06:32:52;2.80;;;0.90;;
25249;SDS011;13201;51.148;13.738;2023-04-24T06:35:18;0.63;;;0.50;;
25249;SDS011;13201;51.148;13.738;2023-04-24T06:37:43;2.90;;;0.77;;
25249;SDS011;13201;51.148;13.738;2023-04-24T06:40:09;1.92;;;0.82;;
25249;SDS011;13201;51.148;13.738;2023-04-24T06:42:36;0.95;;;0.45;;
25249;SDS011;13201;51.148;13.738;2023-04-24T06:45:01;1.70;;;0.93;;
25249;SDS011;13201;51.148;13.738;2023-04-24T06:47:27;1.65;;;0.70;;
25249;SDS011;13201;51.148;13.738;2023-04-24T06:49:53;0.90;;;0.60;;
25249;SDS011;13201;51.148;13.738;2023-04-24T06:52:20;1.23;;;0.80;;
25249;SDS011;13201;51.148;13.738;2023-04-24T06:54:45;1.83;;;0.80;;
25249;SDS011;13201;51.148;13.738;2023-04-24T06:57:11;0.70;;;0.60;;
25249;SDS011;13201;51.148;13.738;2023-04-24T06:59:37;0.50;;;0.50;;
25249;SDS011;13201;51.148;13.738;2023-04-24T07:02:03;1.57;;;0.97;;
25249;SDS011;13201;51.148;13.738;2023-04-24T07:04:29;1.20;;;0.77;;
25249;SDS011;13201;51.148;13.738;2023-04-24T07:06:55;1.25;;;0.80;;
25249;SDS011;13201;51.148;13.738;2023-04-24T07:09:22;1.80;;;1.10;;
25249;SDS011;13201;51.148;13.738;2023-04-24T07:11:50;0.60;;;0.60;;
25249;SDS011;13201;51.148;13.738;2023-04-24T07:14:16;2.42;;;0.55;;
25249;SDS011;13201;51.148;13.738;2023-04-24T07:16:42;1.33;;;0.77;;
25249;SDS011;13201;51.148;13.738;2023-04-24T07:19:08;1.67;;;0.80;;
25249;SDS011;13201;51.148;13.738;2023-04-24T07:21:34;2.15;;;0.95;;
25249;SDS011;13201;51.148;13.738;2023-04-24T07:24:00;2.08;;;0.80;;
25249;SDS011;13201;51.148;13.738;2023-04-24T07:26:27;2.00;;;0.70;;
25249;SDS011;13201;51.148;13.738;2023-04-24T07:28:54;1.90;;;0.70;;
25249;SDS011;13201;51.148;13.738;2023-04-24T07:31:20;1.95;;;0.60;;
25249;SDS011;13201;51.148;13.738;2023-04-24T07:33:46;1.30;;;0.70;;
25249;SDS011;13201;51.148;13.738;2023-04-24T07:36:12;1.08;;;0.52;;
25249;SDS011;13201;51.148;13.738;2023-04-24T07:38:42;0.90;;;0.50;;
25249;SDS011;13201;51.148;13.738;2023-04-24T07:41:08;3.07;;;0.70;;
25249;SDS011;13201;51.148;13.738;2023-04-24T07:43:34;0.65;;;0.52;;
25249;SDS011;13201;51.148;13.738;2023-04-24T07:46:00;1.42;;;0.55;;
25249;SDS011;13201;51.148;13.738;2023-04-24T07:48:26;0.47;;;0.40;;
25249;SDS011;13201;51.148;13.738;2023-04-24T07:50:52;2.67;;;0.80;;
25249;SDS011;13201;51.148;13.738;2023-04-24T07:53:18;1.77;;;0.80;;
25249;SDS011;13201;51.148;13.738;2023-04-24T07:55:44;2.33;;;0.68;;
25249;SDS011;13201;51.148;13.738;2023-04-24T07:58:11;2.38;;;0.70;;
25249;SDS011;13201;51.148;13.738;2023-04-24T08:00:36;1.42;;;0.60;;
25249;SDS011;13201;51.148;13.738;2023-04-24T08:03:02;1.00;;;0.57;;
25249;SDS011;13201;51.148;13.738;2023-04-24T08:05:28;1.38;;;0.60;;
25249;SDS011;13201;51.148;13.738;2023-04-24T08:07:54;1.60;;;0.50;;
25249;SDS011;13201;51.148;13.738;2023-04-24T08:10:23;2.03;;;0.63;;
25249;SDS011;13201;51.148;13.738;2023-04-24T08:12:49;1.50;;;0.50;;
25249;SDS011;13201;51.148;13.738;2023-04-24T08:15:15;2.35;;;0.57;;
25249;SDS011;13201;51.148;13.738;2023-04-24T08:17:40;1.45;;;0.70;;
25249;SDS011;13201;51.148;13.738;2023-04-24T08:20:06;3.08;;;0.75;;
25249;SDS011;13201;51.148;13.738;2023-04-24T08:22:38;2.20;;;0.60;;
25249;SDS011;13201;51.148;13.738;2023-04-24T08:25:05;2.70;;;0.50;;
25249;SDS011;13201;51.148;13.738;2023-04-24T08:27:31;2.72;;;0.75;;
25249;SDS011;13201;51.148;13.738;2023-04-24T08:29:57;1.17;;;0.80;;
25249;SDS011;13201;51.148;13.738;2023-04-24T08:34:49;0.70;;;0.50;;
25249;SDS011;13201;51.148;13.738;2023-04-24T08:37:17;2.60;;;0.90;;
25249;SDS011;13201;51.148;13.738;2023-04-24T08:39:43;2.33;;;0.80;;
25249;SDS011;13201;51.148;13.738;2023-04-24T08:42:09;1.58;;;0.70;;
25249;SDS011;13201;51.148;13.738;2023-04-24T08:44:38;0.57;;;0.50;;
25249;SDS011;13201;51.148;13.738;2023-04-24T08:47:04;0.67;;;0.60;;
25249;SDS011;13201;51.148;13.738;2023-04-24T08:49:32;0.82;;;0.43;;
25249;SDS011;13201;51.148;13.738;2023-04-24T08:52:01;2.97;;;0.60;;
25249;SDS011;13201;51.148;13.738;2023-04-24T08:54:27;1.30;;;0.75;;
25249;SDS011;13201;51.148;13.738;2023-04-24T08:56:53;1.50;;;0.73;;
25249;SDS011;13201;51.148;13.738;2023-04-24T08:59:27;0.68;;;0.50;;
25249;SDS011;13201;51.148;13.738;2023-04-24T09:01:53;1.90;;;0.80;;
25249;SDS011;13201;51.148;13.738;2023-04-24T09:04:21;1.73;;;0.50;;
25249;SDS011;13201;51.148;13.738;2023-04-24T09:06:49;0.75;;;0.50;;
25249;SDS011;13201;51.148;13.738;2023-04-24T09:09:22;0.75;;;0.43;;
25249;SDS011;13201;51.148;13.738;2023-04-24T09:14:15;2.25;;;0.50;;
25249;SDS011;13201;51.148;13.738;2023-04-24T09:16:42;3.92;;;0.52;;
25249;SDS011;13201;51.148;13.738;2023-04-24T09:19:08;1.23;;;0.57;;
25249;SDS011;13201;51.148;13.738;2023-04-24T09:21:34;13.23;;;0.88;;
25249;SDS011;13201;51.148;13.738;2023-04-24T09:24:04;1.35;;;0.50;;
25249;SDS011;13201;51.148;13.738;2023-04-24T09:26:34;1.23;;;0.50;;
25249;SDS011;13201;51.148;13.738;2023-04-24T09:29:00;1.05;;;0.60;;
25249;SDS011;13201;51.148;13.738;2023-04-24T09:36:29;3.75;;;0.57;;
25249;SDS011;13201;51.148;13.738;2023-04-24T09:39:07;1.40;;;0.60;;
25249;SDS011;13201;51.148;13.738;2023-04-24T09:44:13;2.03;;;0.60;;
25249;SDS011;13201;51.148;13.738;2023-04-24T09:46:44;1.33;;;0.52;;
25249;SDS011;13201;51.148;13.738;2023-04-24T09:49:14;0.70;;;0.55;;
25249;SDS011;13201;51.148;13.738;2023-04-24T09:51:41;1.13;;;0.50;;
25249;SDS011;13201;51.148;13.738;2023-04-24T09:54:25;0.77;;;0.30;;
25249;SDS011;13201;51.148;13.738;2023-04-24T09:56:51;3.13;;;0.57;;
25249;SDS011;13201;51.148;13.738;2023-04-24T09:59:17;0.50;;;0.40;;
25249;SDS011;13201;51.148;13.738;2023-04-24T10:01:44;1.05;;;0.35;;
25249;SDS011;13201;51.148;13.738;2023-04-24T10:04:20;1.80;;;0.77;;
25249;SDS011;13201;51.148;13.738;2023-04-24T10:06:47;2.40;;;0.60;;
25249;SDS011;13201;51.148;13.738;2023-04-24T10:09:14;0.57;;;0.40;;
25249;SDS011;13201;51.148;13.738;2023-04-24T10:14:09;3.95;;;0.75;;
25249;SDS011;13201;51.148;13.738;2023-04-24T10:16:37;2.47;;;0.70;;
25249;SDS011;13201;51.148;13.738;2023-04-24T10:19:04;1.05;;;0.50;;
25249;SDS011;13201;51.148;13.738;2023-04-24T10:21:30;1.10;;;0.50;;
25249;SDS011;13201;51.148;13.738;2023-04-24T10:23:56;0.80;;;0.50;;
25249;SDS011;13201;51.148;13.738;2023-04-24T10:26:24;0.75;;;0.50;;
25249;SDS011;13201;51.148;13.738;2023-04-24T10:28:52;1.23;;;0.50;;
25249;SDS011;13201;51.148;13.738;2023-04-24T10:31:22;0.50;;;0.50;;
25249;SDS011;13201;51.148;13.738;2023-04-24T10:33:48;1.00;;;0.55;;
25249;SDS011;13201;51.148;13.738;2023-04-24T10:36:16;3.10;;;0.65;;
25249;SDS011;13201;51.148;13.738;2023-04-24T10:38:44;2.83;;;0.93;;
25249;SDS011;13201;51.148;13.738;2023-04-24T10:41:12;1.15;;;0.45;;
25249;SDS011;13201;51.148;13.738;2023-04-24T10:43:44;1.65;;;0.50;;
25249;SDS011;13201;51.148;13.738;2023-04-24T10:46:10;1.95;;;0.68;;
25249;SDS011;13201;51.148;13.738;2023-04-24T10:48:52;2.65;;;0.68;;
25249;SDS011;13201;51.148;13.738;2023-04-24T10:51:21;0.75;;;0.50;;
25249;SDS011;13201;51.148;13.738;2023-04-24T10:54:28;1.17;;;0.68;;
25249;SDS011;13201;51.148;13.738;2023-04-24T10:59:42;0.82;;;0.60;;
25249;SDS011;13201;51.148;13.738;2023-04-24T11:02:09;1.97;;;0.60;;
25249;SDS011;13201;51.148;13.738;2023-04-24T11:04:35;0.52;;;0.50;;
25249;SDS011;13201;51.148;13.738;2023-04-24T11:07:02;0.30;;;0.30;;
25249;SDS011;13201;51.148;13.738;2023-04-24T11:09:32;2.50;;;0.88;;
25249;SDS011;13201;51.148;13.738;2023-04-24T11:12:06;1.38;;;0.60;;
25249;SDS011;13201;51.148;13.738;2023-04-24T11:17:37;1.30;;;0.30;;
25249;SDS011;13201;51.148;13.738;2023-04-24T11:20:09;0.95;;;0.70;;
25249;SDS011;13201;51.148;13.738;2023-04-24T11:22:37;1.35;;;0.50;;
25249;SDS011;13201;51.148;13.738;2023-04-24T11:25:05;0.93;;;0.40;;
25249;SDS011;13201;51.148;13.738;2023-04-24T11:27:37;1.25;;;0.88;;
25249;SDS011;13201;51.148;13.738;2023-04-24T11:30:07;1.58;;;0.60;;
25249;SDS011;13201;51.148;13.738;2023-04-24T11:32:39;1.73;;;0.47;;
25249;SDS011;13201;51.148;13.738;2023-04-24T11:37:38;0.50;;;0.40;;
25249;SDS011;13201;51.148;13.738;2023-04-24T11:40:10;1.23;;;0.47;;
25249;SDS011;13201;51.148;13.738;2023-04-24T11:42:44;0.45;;;0.40;;
25249;SDS011;13201;51.148;13.738;2023-04-24T11:45:12;1.05;;;0.55;;
25249;SDS011;13201;51.148;13.738;2023-04-24T11:47:39;0.50;;;0.40;;
25249;SDS011;13201;51.148;13.738;2023-04-24T11:50:07;2.03;;;0.60;;
25249;SDS011;13201;51.148;13.738;2023-04-24T11:52:40;0.88;;;0.60;;
25249;SDS011;13201;51.148;13.738;2023-04-24T11:57:48;4.32;;;0.88;;
25249;SDS011;13201;51.148;13.738;2023-04-24T12:00:19;0.68;;;0.50;;
25249;SDS011;13201;51.148;13.738;2023-04-24T12:02:46;3.38;;;0.80;;
25249;SDS011;13201;51.148;13.738;2023-04-24T12:05:20;0.85;;;0.38;;
25249;SDS011;13201;51.148;13.738;2023-04-24T12:07:50;1.30;;;0.50;;
25249;SDS011;13201;51.148;13.738;2023-04-24T12:10:24;2.77;;;0.70;;
25249;SDS011;13201;51.148;13.738;2023-04-24T12:12:51;1.25;;;0.50;;
25249;SDS011;13201;51.148;13.738;2023-04-24T12:15:18;1.38;;;0.45;;
25249;SDS011;13201;51.148;13.738;2023-04-24T12:17:45;0.65;;;0.47;;
25249;SDS011;13201;51.148;13.738;2023-04-24T12:20:11;1.35;;;0.45;;
25249;SDS011;13201;51.148;13.738;2023-04-24T12:25:14;1.20;;;0.50;;
25249;SDS011;13201;51.148;13.738;2023-04-24T12:27:41;2.92;;;0.63;;
25249;SDS011;13201;51.148;13.738;2023-04-24T12:30:10;0.60;;;0.40;;
25249;SDS011;13201;51.148;13.738;2023-04-24T12:32:47;0.40;;;0.40;;
25249;SDS011;13201;51.148;13.738;2023-04-24T12:35:18;0.70;;;0.50;;
25249;SDS011;13201;51.148;13.738;2023-04-24T12:37:46;0.70;;;0.60;;
25249;SDS011;13201;51.148;13.738;2023-04-24T12:40:12;0.80;;;0.70;;
25249;SDS011;13201;51.148;13.738;2023-04-24T12:42:42;4.70;;;0.75;;
25249;SDS011;13201;51.148;13.738;2023-04-24T12:45:15;1.02;;;0.73;;
25249;SDS011;13201;51.148;13.738;2023-04-24T12:47:43;4.15;;;1.02;;
25249;SDS011;13201;51.148;13.738;2023-04-24T12:50:11;0.77;;;0.60;;
25249;SDS011;13201;51.148;13.738;2023-04-24T12:52:38;2.42;;;0.90;;
25249;SDS011;13201;51.148;13.738;2023-04-24T12:55:04;1.73;;;0.63;;
25249;SDS011;13201;51.148;13.738;2023-04-24T12:57:33;0.68;;;0.55;;
25249;SDS011;13201;51.148;13.738;2023-04-24T13:00:00;1.42;;;0.80;;
25249;SDS011;13201;51.148;13.738;2023-04-24T13:02:27;2.27;;;0.60;;
25249;SDS011;13201;51.148;13.738;2023-04-24T13:04:55;2.67;;;0.70;;
25249;SDS011;13201;51.148;13.738;2023-04-24T13:07:21;2.15;;;0.52;;
25249;SDS011;13201;51.148;13.738;2023-04-24T13:09:47;1.13;;;0.70;;
25249;SDS011;13201;51.148;13.738;2023-04-24T13:12:14;0.85;;;0.50;;
25249;SDS011;13201;51.148;13.738;2023-04-24T13:14:40;0.70;;;0.70;;
25249;SDS011;13201;51.148;13.738;2023-04-24T13:17:06;17.43;;;1.57;;
25249;SDS011;13201;51.148;13.738;2023-04-24T13:19:37;3.38;;;0.73;;
25249;SDS011;13201;51.148;13.738;2023-04-24T13:22:08;1.10;;;0.60;;
25249;SDS011;13201;51.148;13.738;2023-04-24T13:24:35;2.00;;;0.70;;
25249;SDS011;13201;51.148;13.738;2023-04-24T13:27:03;1.85;;;0.60;;
25249;SDS011;13201;51.148;13.738;2023-04-24T13:29:29;8.23;;;0.95;;
25249;SDS011;13201;51.148;13.738;2023-04-24T13:31:55;0.73;;;0.60;;
25249;SDS011;13201;51.148;13.738;2023-04-24T13:34:24;2.28;;;0.82;;
25249;SDS011;13201;51.148;13.738;2023-04-24T13:36:51;3.65;;;0.68;;
25249;SDS011;13201;51.148;13.738;2023-04-24T13:39:20;2.25;;;0.63;;
25249;SDS011;13201;51.148;13.738;2023-04-24T13:41:46;6.05;;;0.90;;
25249;SDS011;13201;51.148;13.738;2023-04-24T13:44:13;1.05;;;0.73;;
25249;SDS011;13201;51.148;13.738;2023-04-24T13:46:40;3.40;;;0.93;;
25249;SDS011;13201;51.148;13.738;2023-04-24T13:49:06;1.15;;;0.50;;
25249;SDS011;13201;51.148;13.738;2023-04-24T13:51:33;0.90;;;0.65;;
25249;SDS011;13201;51.148;13.738;2023-04-24T13:53:58;3.35;;;0.68;;
25249;SDS011;13201;51.148;13.738;2023-04-24T13:56:24;4.87;;;0.80;;
25249;SDS011;13201;51.148;13.738;2023-04-24T13:58:51;4.97;;;0.80;;
25249;SDS011;13201;51.148;13.738;2023-04-24T14:01:19;1.70;;;0.43;;
25249;SDS011;13201;51.148;13.738;2023-04-24T14:03:45;1.45;;;0.60;;
25249;SDS011;13201;51.148;13.738;2023-04-24T14:06:11;2.67;;;0.73;;
25249;SDS011;13201;51.148;13.738;2023-04-24T14:08:37;2.40;;;1.15;;
25249;SDS011;13201;51.148;13.738;2023-04-24T14:11:02;1.08;;;0.40;;
25249;SDS011;13201;51.148;13.738;2023-04-24T14:13:28;2.10;;;0.67;;
25249;SDS011;13201;51.148;13.738;2023-04-24T14:15:54;1.65;;;0.65;;
25249;SDS011;13201;51.148;13.738;2023-04-24T14:18:20;1.33;;;0.55;;
25249;SDS011;13201;51.148;13.738;2023-04-24T14:20:46;3.95;;;0.80;;
25249;SDS011;13201;51.148;13.738;2023-04-24T14:23:11;1.50;;;0.57;;
25249;SDS011;13201;51.148;13.738;2023-04-24T14:25:37;0.90;;;0.50;;
25249;SDS011;13201;51.148;13.738;2023-04-24T14:28:03;1.52;;;0.70;;
25249;SDS011;13201;51.148;13.738;2023-04-24T14:30:28;2.05;;;0.70;;
25249;SDS011;13201;51.148;13.738;2023-04-24T14:32:54;1.60;;;0.88;;
25249;SDS011;13201;51.148;13.738;2023-04-24T14:35:20;5.05;;;0.70;;
25249;SDS011;13201;51.148;13.738;2023-04-24T14:37:45;1.70;;;0.85;;
25249;SDS011;13201;51.148;13.738;2023-04-24T14:40:13;1.13;;;0.80;;
25249;SDS011;13201;51.148;13.738;2023-04-24T14:42:39;0.95;;;0.70;;
25249;SDS011;13201;51.148;13.738;2023-04-24T14:45:05;1.02;;;0.70;;
25249;SDS011;13201;51.148;13.738;2023-04-24T14:47:32;0.65;;;0.52;;
25249;SDS011;13201;51.148;13.738;2023-04-24T14:49:58;1.67;;;0.70;;
25249;SDS011;13201;51.148;13.738;2023-04-24T14:52:24;0.93;;;0.70;;
25249;SDS011;13201;51.148;13.738;2023-04-24T14:54:50;0.80;;;0.70;;
25249;SDS011;13201;51.148;13.738;2023-04-24T14:57:15;1.17;;;0.82;;
25249;SDS011;13201;51.148;13.738;2023-04-24T14:59:41;1.40;;;0.70;;
25249;SDS011;13201;51.148;13.738;2023-04-24T15:02:07;0.70;;;0.70;;
25249;SDS011;13201;51.148;13.738;2023-04-24T15:04:32;1.15;;;0.57;;
25249;SDS011;13201;51.148;13.738;2023-04-24T15:06:58;5.10;;;0.70;;
25249;SDS011;13201;51.148;13.738;2023-04-24T15:09:24;1.63;;;0.70;;
25249;SDS011;13201;51.148;13.738;2023-04-24T15:14:17;3.03;;;0.83;;
25249;SDS011;13201;51.148;13.738;2023-04-24T15:16:43;1.23;;;0.73;;
25249;SDS011;13201;51.148;13.738;2023-04-24T15:19:09;1.67;;;0.70;;
25249;SDS011;13201;51.148;13.738;2023-04-24T15:21:36;0.87;;;0.70;;
25249;SDS011;13201;51.148;13.738;2023-04-24T15:24:02;2.38;;;0.60;;
25249;SDS011;13201;51.148;13.738;2023-04-24T15:26:31;1.05;;;0.70;;